createdAt,value
2023-05-10T00:02:46.486Z,100584.00
2023-05-10T00:07:54.077Z,100584.06
2023-05-10T00:13:01.551Z,100580.45
2023-05-10T00:18:09.187Z,100574.78
2023-05-10T00:23:17.043Z,100570.98
2023-05-10T00:28:24.434Z,100574.02
2023-05-10T00:33:32.006Z,100573.73
2023-05-10T00:38:39.391Z,100573.08
2023-05-10T00:43:46.743Z,100571.71
2023-05-10T00:48:54.690Z,100568.80
2023-05-10T00:54:02.707Z,100565.55
2023-05-10T00:59:10.863Z,100567.39
2023-05-10T01:04:18.870Z,100568.01
2023-05-10T01:09:27.644Z,100573.54
2023-05-10T01:14:35.800Z,100576.13
2023-05-10T01:19:44.019Z,100573.84
2023-05-10T01:25:35.581Z,100572.60
2023-05-10T01:31:10.469Z,100573.82
2023-05-10T01:36:28.300Z,100582.31
2023-05-10T01:41:43.562Z,100585.73
2023-05-10T01:46:56.511Z,100581.45
2023-05-10T01:52:11.473Z,100582.91
2023-05-10T01:57:19.502Z,100585.77
2023-05-10T02:02:28.864Z,100579.50
2023-05-10T02:07:38.384Z,100563.55
2023-05-10T02:12:49.210Z,100575.71
2023-05-10T02:17:58.260Z,100571.58
2023-05-10T02:23:06.770Z,100569.19
2023-05-10T02:28:17.254Z,100566.65
2023-05-10T02:33:25.534Z,100567.42
2023-05-10T02:38:35.218Z,100568.54
2023-05-10T02:43:44.827Z,100564.42
2023-05-10T02:48:52.186Z,100559.46
2023-05-10T02:54:00.537Z,100566.60
2023-05-10T02:59:07.908Z,100564.21
2023-05-10T03:04:15.372Z,100565.46
2023-05-10T03:09:23.283Z,100570.54
2023-05-10T03:14:46.459Z,100571.78
2023-05-10T03:19:58.469Z,100575.08
2023-05-10T03:25:11.188Z,100573.98
2023-05-10T03:30:21.240Z,100571.45
2023-05-10T03:35:29.007Z,100573.05
2023-05-10T03:40:36.732Z,100569.55
2023-05-10T03:45:44.343Z,100572.63
2023-05-10T03:50:51.966Z,100568.52
2023-05-10T03:55:59.468Z,100568.20
2023-05-10T04:01:06.949Z,100570.33
2023-05-10T04:06:14.270Z,100567.25
2023-05-10T04:11:23.353Z,100567.10
2023-05-10T04:16:31.111Z,100557.39
2023-05-10T04:21:39.041Z,100556.55
2023-05-10T04:26:47.103Z,100560.55
2023-05-10T04:31:54.881Z,100558.75
2023-05-10T04:37:02.214Z,100561.54
2023-05-10T04:42:09.907Z,100557.88
2023-05-10T04:47:17.703Z,100552.37
2023-05-10T04:52:25.390Z,100549.58
2023-05-10T04:57:33.058Z,100556.18
2023-05-10T05:02:40.379Z,100541.19
2023-05-10T05:07:48.240Z,100564.14
2023-05-10T05:12:55.572Z,100558.06
2023-05-10T05:18:03.256Z,100561.95
2023-05-10T05:23:10.871Z,100565.48
2023-05-10T05:28:18.441Z,100566.02
2023-05-10T05:33:25.896Z,100565.41
2023-05-10T05:38:33.340Z,100558.52
2023-05-10T05:43:40.905Z,100557.80
2023-05-10T05:48:48.104Z,100557.27
2023-05-10T05:53:55.662Z,100557.38
2023-05-10T05:59:03.378Z,100554.98
2023-05-10T06:04:11.080Z,100544.31
2023-05-10T06:09:18.539Z,100548.34
2023-05-10T06:14:26.833Z,100550.17
2023-05-10T06:19:34.446Z,100544.88
2023-05-10T06:24:42.014Z,100547.83
2023-05-10T06:29:52.256Z,100547.58
2023-05-10T06:35:04.022Z,100549.52
2023-05-10T06:40:13.329Z,100548.13
2023-05-10T06:45:21.504Z,100548.71
2023-05-10T06:50:29.547Z,100545.67
2023-05-10T06:55:37.336Z,100541.50
2023-05-10T07:00:46.697Z,100533.92
2023-05-10T07:05:54.391Z,100537.80
2023-05-10T07:11:08.581Z,100535.77
2023-05-10T07:16:16.189Z,100534.86
2023-05-10T07:21:25.345Z,100537.52
2023-05-10T07:26:33.299Z,100541.68
2023-05-10T07:31:43.345Z,100538.96
2023-05-10T07:36:50.936Z,100535.21
2023-05-10T07:41:58.423Z,100534.27
2023-05-10T07:47:06.094Z,100529.14
2023-05-10T07:52:13.361Z,100524.23
2023-05-10T07:57:21.076Z,100522.63
2023-05-10T08:03:15.310Z,100514.67
2023-05-10T08:08:24.256Z,100520.65
2023-05-10T08:13:32.814Z,100516.27
2023-05-10T08:18:40.765Z,100516.95
2023-05-10T08:23:48.190Z,100518.01
2023-05-10T08:28:55.619Z,100515.61
2023-05-10T08:34:03.307Z,100514.29
2023-05-10T08:39:23.086Z,100521.41
2023-05-10T08:44:37.278Z,100515.94
2023-05-10T08:49:46.400Z,100510.48
2023-05-10T08:54:54.077Z,100506.42
2023-05-10T09:00:04.080Z,100502.88
2023-05-10T09:05:13.347Z,100506.77
2023-05-10T09:10:21.571Z,100506.27
2023-05-10T09:15:29.136Z,100509.95
2023-05-10T09:20:36.838Z,100502.35
2023-05-10T09:25:45.956Z,100499.29
2023-05-10T09:30:58.459Z,100499.92
2023-05-10T09:36:13.912Z,100495.05
2023-05-10T09:41:26.536Z,100484.76
2023-05-10T09:46:38.378Z,100485.66
2023-05-10T09:51:46.364Z,100474.59
2023-05-10T09:56:53.983Z,100471.66
2023-05-10T10:02:03.124Z,100474.05
2023-05-10T10:07:11.366Z,100458.31
2023-05-10T10:12:19.099Z,100465.57
2023-05-10T10:17:27.538Z,100459.83
2023-05-10T10:22:35.136Z,100461.17
2023-05-10T10:27:51.228Z,100456.50
2023-05-10T10:39:00.858Z,100444.23
2023-05-10T10:44:30.726Z,100435.64
2023-05-10T10:49:45.552Z,100432.36
2023-05-10T10:55:04.499Z,100425.68
2023-05-10T11:00:30.164Z,100411.98
2023-05-10T11:05:46.355Z,100414.77
2023-05-10T11:11:09.616Z,100413.83
2023-05-10T11:16:22.396Z,100409.92
2023-05-10T11:21:30.328Z,100410.55
2023-05-10T11:26:42.436Z,100409.24
2023-05-10T11:31:51.190Z,100399.58
2023-05-10T11:37:00.304Z,100395.65
2023-05-10T11:42:10.677Z,100389.05
2023-05-10T11:47:18.427Z,100390.63
2023-05-10T11:52:27.465Z,100390.26
2023-05-10T11:57:35.441Z,100384.58
2023-05-10T12:02:43.630Z,100381.04
2023-05-10T12:07:51.725Z,100383.54
2023-05-10T12:13:01.341Z,100379.77
2023-05-10T12:18:09.784Z,100378.38
2023-05-10T12:23:18.262Z,100383.29
2023-05-10T12:28:26.335Z,100380.01
2023-05-10T12:33:44.347Z,100369.05
2023-05-10T12:38:53.279Z,100379.74
2023-05-10T12:44:01.002Z,100374.63
2023-05-10T12:49:09.862Z,100370.48
2023-05-10T12:54:17.610Z,100369.89
2023-05-10T12:59:25.399Z,100358.83
2023-05-10T13:04:33.102Z,100350.95
2023-05-10T13:09:40.624Z,100356.15
2023-05-10T13:14:48.748Z,100346.81
2023-05-10T13:19:56.440Z,100336.92
2023-05-10T13:25:04.121Z,100345.59
2023-05-10T13:30:14.187Z,100343.24
2023-05-10T13:35:22.057Z,100340.27
2023-05-10T13:40:29.768Z,100313.54
2023-05-10T13:45:37.491Z,100329.88
2023-05-10T13:50:45.852Z,100321.73
2023-05-10T13:55:53.909Z,100319.91
2023-05-10T14:01:02.072Z,100314.33
2023-05-10T14:06:11.142Z,100305.36
2023-05-10T14:11:19.141Z,100308.61
2023-05-10T14:16:27.759Z,100303.21
2023-05-10T14:21:35.995Z,100308.29
2023-05-10T14:26:44.438Z,100303.52
2023-05-10T14:31:52.696Z,100302.22
2023-05-10T14:37:02.309Z,100305.48
2023-05-10T14:42:10.352Z,100298.77
2023-05-10T14:47:18.564Z,100295.13
2023-05-10T14:52:26.368Z,100303.19
2023-05-10T14:57:34.712Z,100302.48
2023-05-10T15:02:43.117Z,100306.69
2023-05-10T15:07:51.658Z,100305.91
2023-05-10T15:12:59.705Z,100300.55
2023-05-10T15:18:08.014Z,100297.90
2023-05-10T15:23:16.605Z,100293.88
2023-05-10T15:28:24.432Z,100292.89
2023-05-10T15:33:32.288Z,100288.30
2023-05-10T15:38:39.948Z,100290.38
2023-05-10T15:43:47.835Z,100290.17
2023-05-10T15:48:55.681Z,100291.75
2023-05-10T15:54:07.810Z,100294.52
2023-05-10T15:59:16.037Z,100287.95
2023-05-10T16:04:24.782Z,100292.30
2023-05-10T16:09:32.559Z,100294.77
2023-05-10T16:14:40.457Z,100299.05
2023-05-10T16:19:49.211Z,100297.30
2023-05-10T16:24:57.032Z,100299.96
2023-05-10T16:30:07.400Z,100295.64
2023-05-10T16:35:16.000Z,100292.41
2023-05-10T16:40:25.251Z,100300.55
2023-05-10T16:45:35.178Z,100299.58
2023-05-10T16:50:45.097Z,100301.67
2023-05-10T16:55:54.327Z,100304.09
2023-05-10T17:01:02.519Z,100312.08
2023-05-10T17:06:12.166Z,100314.78
2023-05-10T17:11:22.285Z,100317.01
2023-05-10T17:16:31.361Z,100321.83
2023-05-10T17:21:39.688Z,100326.38
2023-05-10T17:26:47.165Z,100328.13
2023-05-10T17:31:54.690Z,100330.33
2023-05-10T17:37:02.781Z,100330.88
2023-05-10T17:42:11.206Z,100333.33
2023-05-10T17:47:19.347Z,100339.70
2023-05-10T17:52:27.872Z,100343.19
2023-05-10T17:57:35.158Z,100351.28
2023-05-10T18:02:43.172Z,100351.30
2023-05-10T18:07:50.945Z,100355.46
2023-05-10T18:12:59.151Z,100358.06
2023-05-10T18:18:07.885Z,100360.37
2023-05-10T18:23:16.142Z,100362.47
2023-05-10T18:28:27.977Z,100368.48
2023-05-10T18:33:35.889Z,100362.43
2023-05-10T18:38:43.947Z,100365.59
2023-05-10T18:43:52.646Z,100369.66
2023-05-10T18:49:04.229Z,100372.58
2023-05-10T18:54:11.981Z,100378.64
2023-05-10T18:59:20.242Z,100382.08
2023-05-10T19:04:27.603Z,100385.24
2023-05-10T19:09:35.728Z,100383.25
2023-05-10T19:14:43.736Z,100388.71
2023-05-10T19:19:51.456Z,100388.50
2023-05-10T19:24:59.378Z,100396.02
2023-05-10T19:30:08.250Z,100393.34
2023-05-10T19:35:16.139Z,100400.77
2023-05-10T19:40:23.784Z,100404.74
2023-05-10T19:45:31.317Z,100412.54
2023-05-10T19:50:39.159Z,100417.73
2023-05-10T19:55:46.676Z,100419.89
2023-05-10T20:00:55.363Z,100424.92
2023-05-10T20:06:03.614Z,100429.19
2023-05-10T20:11:11.224Z,100434.07
2023-05-10T20:16:19.105Z,100430.95
2023-05-10T20:21:27.082Z,100429.88
2023-05-10T20:26:35.023Z,100430.85
2023-05-10T20:31:42.707Z,100427.48
2023-05-10T20:36:50.354Z,100431.54
2023-05-10T20:41:57.808Z,100434.36
2023-05-10T20:47:06.072Z,100430.13
2023-05-10T20:52:13.638Z,100436.40
2023-05-10T20:57:21.708Z,100436.73
2023-05-10T21:02:29.924Z,100438.08
2023-05-10T21:07:37.744Z,100439.95
2023-05-10T21:12:45.295Z,100448.39
2023-05-10T21:17:54.296Z,100452.98
2023-05-10T21:23:01.978Z,100454.58
2023-05-10T21:28:10.091Z,100456.11
2023-05-10T21:33:17.822Z,100461.51
2023-05-10T21:38:25.551Z,100456.34
2023-05-10T21:43:33.194Z,100465.95
2023-05-10T21:48:40.974Z,100467.90
2023-05-10T21:53:48.398Z,100470.43
2023-05-10T21:58:56.105Z,100466.36
2023-05-10T22:04:03.587Z,100463.29
2023-05-10T22:09:11.604Z,100465.14
2023-05-10T22:14:19.921Z,100466.23
2023-05-10T22:19:27.939Z,100471.17
2023-05-10T22:24:36.174Z,100473.48
2023-05-10T22:29:43.796Z,100480.14
2023-05-10T22:34:51.174Z,100485.50
2023-05-10T22:39:58.584Z,100487.55
2023-05-10T22:45:06.748Z,100487.12
2023-05-10T22:50:16.401Z,100491.27
2023-05-10T22:55:24.409Z,100496.01
2023-05-10T23:00:31.783Z,100503.98
2023-05-10T23:05:39.429Z,100500.38
2023-05-10T23:10:47.439Z,100503.63
2023-05-10T23:15:55.263Z,100503.91
2023-05-10T23:21:03.123Z,100505.88
2023-05-10T23:26:10.707Z,100505.92
2023-05-10T23:31:18.767Z,100503.05
2023-05-10T23:36:26.401Z,100505.63
2023-05-10T23:41:33.876Z,100510.39
2023-05-10T23:46:41.599Z,100505.25
2023-05-10T23:51:48.976Z,100510.28
2023-05-10T23:56:56.371Z,100513.45
